sensor_id;sensor_type;location;lat;lon;timestamp;temperature;humidity
5009;DHT22;2523;51.058;6.922;2023-04-03T00:00:11;3.40;1.00
5009;DHT22;2523;51.058;6.922;2023-04-03T00:02:37;3.40;1.00
5009;DHT22;2523;51.058;6.922;2023-04-03T00:05:03;3.40;1.00
5009;DHT22;2523;51.058;6.922;2023-04-03T00:07:29;3.40;1.00
5009;DHT22;2523;51.058;6.922;2023-04-03T00:09:55;3.40;1.00
5009;DHT22;2523;51.058;6.922;2023-04-03T00:12:21;3.30;1.00
5009;DHT22;2523;51.058;6.922;2023-04-03T00:14:46;3.30;1.00
5009;DHT22;2523;51.058;6.922;2023-04-03T00:17:12;3.20;1.00
5009;DHT22;2523;51.058;6.922;2023-04-03T00:19:37;3.20;1.00
5009;DHT22;2523;51.058;6.922;2023-04-03T00:22:03;3.20;1.00
5009;DHT22;2523;51.058;6.922;2023-04-03T00:24:29;3.30;1.00
5009;DHT22;2523;51.058;6.922;2023-04-03T00:26:54;3.30;1.00
5009;DHT22;2523;51.058;6.922;2023-04-03T00:29:20;3.20;1.00
5009;DHT22;2523;51.058;6.922;2023-04-03T00:31:45;3.20;1.00
5009;DHT22;2523;51.058;6.922;2023-04-03T00:34:11;3.20;1.00
5009;DHT22;2523;51.058;6.922;2023-04-03T00:36:36;3.20;1.00
5009;DHT22;2523;51.058;6.922;2023-04-03T00:39:02;3.20;1.00
5009;DHT22;2523;51.058;6.922;2023-04-03T00:41:28;3.10;1.00
5009;DHT22;2523;51.058;6.922;2023-04-03T00:43:53;3.10;1.00
5009;DHT22;2523;51.058;6.922;2023-04-03T00:46:19;3.10;1.00
5009;DHT22;2523;51.058;6.922;2023-04-03T00:48:46;3.10;1.00
5009;DHT22;2523;51.058;6.922;2023-04-03T00:51:24;3.00;1.00
5009;DHT22;2523;51.058;6.922;2023-04-03T00:54:01;3.00;1.00
5009;DHT22;2523;51.058;6.922;2023-04-03T00:56:28;3.00;1.00
5009;DHT22;2523;51.058;6.922;2023-04-03T00:58:58;2.90;1.00
5009;DHT22;2523;51.058;6.922;2023-04-03T01:01:26;2.90;39.20
5009;DHT22;2523;51.058;6.922;2023-04-03T01:03:53;2.80;45.80
5009;DHT22;2523;51.058;6.922;2023-04-03T01:06:23;2.80;91.70
5009;DHT22;2523;51.058;6.922;2023-04-03T01:08:50;2.80;67.40
5009;DHT22;2523;51.058;6.922;2023-04-03T01:11:16;2.80;99.90
5009;DHT22;2523;51.058;6.922;2023-04-03T01:13:42;2.70;99.90
5009;DHT22;2523;51.058;6.922;2023-04-03T01:16:08;2.70;99.90
5009;DHT22;2523;51.058;6.922;2023-04-03T01:18:36;2.70;99.90
5009;DHT22;2523;51.058;6.922;2023-04-03T01:23:58;2.70;99.90
5009;DHT22;2523;51.058;6.922;2023-04-03T01:26:24;2.70;99.90
5009;DHT22;2523;51.058;6.922;2023-04-03T01:28:53;2.60;99.90
5009;DHT22;2523;51.058;6.922;2023-04-03T01:33:48;2.50;99.90
5009;DHT22;2523;51.058;6.922;2023-04-03T01:36:20;2.50;99.90
5009;DHT22;2523;51.058;6.922;2023-04-03T01:38:46;2.50;99.90
5009;DHT22;2523;51.058;6.922;2023-04-03T01:41:12;2.50;99.90
5009;DHT22;2523;51.058;6.922;2023-04-03T01:43:37;2.50;99.90
5009;DHT22;2523;51.058;6.922;2023-04-03T01:46:03;2.40;99.90
5009;DHT22;2523;51.058;6.922;2023-04-03T01:48:29;2.50;99.90
5009;DHT22;2523;51.058;6.922;2023-04-03T01:50:54;2.50;99.90
5009;DHT22;2523;51.058;6.922;2023-04-03T01:53:20;2.40;99.90
5009;DHT22;2523;51.058;6.922;2023-04-03T01:55:45;2.50;99.90
5009;DHT22;2523;51.058;6.922;2023-04-03T01:58:11;2.50;99.90
5009;DHT22;2523;51.058;6.922;2023-04-03T02:00:37;2.50;99.90
5009;DHT22;2523;51.058;6.922;2023-04-03T02:03:02;2.40;99.90
5009;DHT22;2523;51.058;6.922;2023-04-03T02:05:28;2.40;99.90
5009;DHT22;2523;51.058;6.922;2023-04-03T02:07:54;2.40;99.90
5009;DHT22;2523;51.058;6.922;2023-04-03T02:10:19;2.40;99.90
5009;DHT22;2523;51.058;6.922;2023-04-03T02:12:45;2.40;99.90
5009;DHT22;2523;51.058;6.922;2023-04-03T02:15:11;2.40;99.90
5009;DHT22;2523;51.058;6.922;2023-04-03T02:17:36;2.40;99.90
5009;DHT22;2523;51.058;6.922;2023-04-03T02:20:02;2.40;91.70
5009;DHT22;2523;51.058;6.922;2023-04-03T02:22:28;2.50;68.30
5009;DHT22;2523;51.058;6.922;2023-04-03T02:24:54;2.50;1.80
5009;DHT22;2523;51.058;6.922;2023-04-03T02:27:19;2.50;1.00
5009;DHT22;2523;51.058;6.922;2023-04-03T02:29:45;2.50;1.00
5009;DHT22;2523;51.058;6.922;2023-04-03T02:32:11;2.50;1.00
5009;DHT22;2523;51.058;6.922;2023-04-03T02:34:36;2.50;1.00
5009;DHT22;2523;51.058;6.922;2023-04-03T02:37:02;2.50;1.00
5009;DHT22;2523;51.058;6.922;2023-04-03T02:39:27;2.50;1.00
5009;DHT22;2523;51.058;6.922;2023-04-03T02:41:53;2.50;1.00
5009;DHT22;2523;51.058;6.922;2023-04-03T02:44:18;2.50;1.00
5009;DHT22;2523;51.058;6.922;2023-04-03T02:46:44;2.40;1.00
5009;DHT22;2523;51.058;6.922;2023-04-03T02:49:10;2.40;6.00
5009;DHT22;2523;51.058;6.922;2023-04-03T02:51:35;2.50;36.70
5009;DHT22;2523;51.058;6.922;2023-04-03T02:54:01;2.40;1.00
5009;DHT22;2523;51.058;6.922;2023-04-03T02:56:27;2.40;12.00
5009;DHT22;2523;51.058;6.922;2023-04-03T02:58:52;2.40;91.30
5009;DHT22;2523;51.058;6.922;2023-04-03T03:01:18;2.40;78.40
5009;DHT22;2523;51.058;6.922;2023-04-03T03:03:43;2.40;99.90
5009;DHT22;2523;51.058;6.922;2023-04-03T03:06:15;2.30;99.90
5009;DHT22;2523;51.058;6.922;2023-04-03T03:08:41;2.40;99.90
5009;DHT22;2523;51.058;6.922;2023-04-03T03:11:08;2.30;99.90
5009;DHT22;2523;51.058;6.922;2023-04-03T03:13:34;2.40;99.90
5009;DHT22;2523;51.058;6.922;2023-04-03T03:15:59;2.30;99.90
5009;DHT22;2523;51.058;6.922;2023-04-03T03:18:25;2.40;99.90
5009;DHT22;2523;51.058;6.922;2023-04-03T03:20:52;2.40;76.20
5009;DHT22;2523;51.058;6.922;2023-04-03T03:23:18;2.40;31.50
5009;DHT22;2523;51.058;6.922;2023-04-03T03:25:43;2.30;12.40
5009;DHT22;2523;51.058;6.922;2023-04-03T03:28:09;2.30;1.00
5009;DHT22;2523;51.058;6.922;2023-04-03T03:30:35;2.30;19.10
5009;DHT22;2523;51.058;6.922;2023-04-03T03:33:00;2.30;30.60
5009;DHT22;2523;51.058;6.922;2023-04-03T03:35:26;2.30;1.00
5009;DHT22;2523;51.058;6.922;2023-04-03T03:37:52;2.30;1.00
5009;DHT22;2523;51.058;6.922;2023-04-03T03:40:17;2.20;1.00
5009;DHT22;2523;51.058;6.922;2023-04-03T03:42:43;2.30;1.00
5009;DHT22;2523;51.058;6.922;2023-04-03T03:45:09;2.30;1.00
5009;DHT22;2523;51.058;6.922;2023-04-03T03:47:34;2.30;1.00
5009;DHT22;2523;51.058;6.922;2023-04-03T03:50:01;2.30;1.00
5009;DHT22;2523;51.058;6.922;2023-04-03T03:52:26;2.20;1.00
5009;DHT22;2523;51.058;6.922;2023-04-03T03:54:52;2.20;12.10
5009;DHT22;2523;51.058;6.922;2023-04-03T03:57:17;2.20;22.00
5009;DHT22;2523;51.058;6.922;2023-04-03T03:59:43;2.10;10.50
5009;DHT22;2523;51.058;6.922;2023-04-03T04:02:10;2.10;56.70
5009;DHT22;2523;51.058;6.922;2023-04-03T04:04:36;2.10;36.90
5009;DHT22;2523;51.058;6.922;2023-04-03T04:07:02;2.10;66.10
5009;DHT22;2523;51.058;6.922;2023-04-03T04:09:28;2.10;1.00
5009;DHT22;2523;51.058;6.922;2023-04-03T04:11:53;2.10;1.00
5009;DHT22;2523;51.058;6.922;2023-04-03T04:14:19;2.10;1.00
5009;DHT22;2523;51.058;6.922;2023-04-03T04:16:46;2.10;1.00
5009;DHT22;2523;51.058;6.922;2023-04-03T04:19:12;2.10;1.00
5009;DHT22;2523;51.058;6.922;2023-04-03T04:21:38;2.10;1.00
5009;DHT22;2523;51.058;6.922;2023-04-03T04:24:05;2.10;1.00
5009;DHT22;2523;51.058;6.922;2023-04-03T04:26:30;2.20;1.00
5009;DHT22;2523;51.058;6.922;2023-04-03T04:28:56;2.20;1.00
5009;DHT22;2523;51.058;6.922;2023-04-03T04:31:21;2.20;1.00
5009;DHT22;2523;51.058;6.922;2023-04-03T04:33:47;2.20;1.00
5009;DHT22;2523;51.058;6.922;2023-04-03T04:36:12;2.30;1.00
5009;DHT22;2523;51.058;6.922;2023-04-03T04:38:40;2.20;1.00
5009;DHT22;2523;51.058;6.922;2023-04-03T04:41:06;2.20;1.00
5009;DHT22;2523;51.058;6.922;2023-04-03T04:43:31;2.30;1.00
5009;DHT22;2523;51.058;6.922;2023-04-03T04:46:05;2.20;1.00
5009;DHT22;2523;51.058;6.922;2023-04-03T04:48:31;2.30;1.00
5009;DHT22;2523;51.058;6.922;2023-04-03T04:50:56;2.30;1.00
5009;DHT22;2523;51.058;6.922;2023-04-03T04:53:22;2.30;1.00
5009;DHT22;2523;51.058;6.922;2023-04-03T04:55:48;2.30;1.00
5009;DHT22;2523;51.058;6.922;2023-04-03T04:58:13;2.30;1.00
5009;DHT22;2523;51.058;6.922;2023-04-03T05:00:39;2.30;1.00
5009;DHT22;2523;51.058;6.922;2023-04-03T05:03:05;2.30;1.00
5009;DHT22;2523;51.058;6.922;2023-04-03T05:05:30;2.30;1.00
5009;DHT22;2523;51.058;6.922;2023-04-03T05:07:56;2.30;1.00
5009;DHT22;2523;51.058;6.922;2023-04-03T05:10:21;2.30;1.00
5009;DHT22;2523;51.058;6.922;2023-04-03T05:12:47;2.30;1.00
5009;DHT22;2523;51.058;6.922;2023-04-03T05:15:12;2.40;1.00
5009;DHT22;2523;51.058;6.922;2023-04-03T05:17:38;2.40;1.00
5009;DHT22;2523;51.058;6.922;2023-04-03T05:20:04;2.40;1.00
5009;DHT22;2523;51.058;6.922;2023-04-03T05:22:30;2.40;1.00
5009;DHT22;2523;51.058;6.922;2023-04-03T05:24:56;2.40;1.00
5009;DHT22;2523;51.058;6.922;2023-04-03T05:27:22;2.40;1.00
5009;DHT22;2523;51.058;6.922;2023-04-03T05:29:49;2.30;1.00
5009;DHT22;2523;51.058;6.922;2023-04-03T05:32:15;2.40;1.00
5009;DHT22;2523;51.058;6.922;2023-04-03T05:34:42;2.40;1.00
5009;DHT22;2523;51.058;6.922;2023-04-03T05:37:07;2.40;1.00
5009;DHT22;2523;51.058;6.922;2023-04-03T05:39:33;2.40;1.00
5009;DHT22;2523;51.058;6.922;2023-04-03T05:41:59;2.40;1.00
5009;DHT22;2523;51.058;6.922;2023-04-03T05:44:24;2.40;1.00
5009;DHT22;2523;51.058;6.922;2023-04-03T05:46:50;2.40;1.00
5009;DHT22;2523;51.058;6.922;2023-04-03T05:49:16;2.50;1.00
5009;DHT22;2523;51.058;6.922;2023-04-03T05:51:41;2.60;1.00
5009;DHT22;2523;51.058;6.922;2023-04-03T05:54:16;2.60;1.00
5009;DHT22;2523;51.058;6.922;2023-04-03T05:56:43;2.70;1.00
5009;DHT22;2523;51.058;6.922;2023-04-03T05:59:09;2.70;1.00
5009;DHT22;2523;51.058;6.922;2023-04-03T06:01:34;2.70;1.00
5009;DHT22;2523;51.058;6.922;2023-04-03T06:04:00;2.80;1.00
5009;DHT22;2523;51.058;6.922;2023-04-03T06:06:26;2.80;1.00
5009;DHT22;2523;51.058;6.922;2023-04-03T06:08:51;2.90;1.00
5009;DHT22;2523;51.058;6.922;2023-04-03T06:11:17;2.90;1.00
5009;DHT22;2523;51.058;6.922;2023-04-03T06:13:43;2.90;1.00
5009;DHT22;2523;51.058;6.922;2023-04-03T06:16:12;3.00;1.00
5009;DHT22;2523;51.058;6.922;2023-04-03T06:18:40;3.00;1.00
5009;DHT22;2523;51.058;6.922;2023-04-03T06:21:06;3.10;1.00
5009;DHT22;2523;51.058;6.922;2023-04-03T06:23:33;3.20;1.00
5009;DHT22;2523;51.058;6.922;2023-04-03T06:25:58;3.20;1.00
5009;DHT22;2523;51.058;6.922;2023-04-03T06:28:25;3.20;1.00
5009;DHT22;2523;51.058;6.922;2023-04-03T06:30:50;3.30;1.00
5009;DHT22;2523;51.058;6.922;2023-04-03T06:33:16;3.30;1.00
5009;DHT22;2523;51.058;6.922;2023-04-03T06:35:41;3.30;1.00
5009;DHT22;2523;51.058;6.922;2023-04-03T06:38:07;3.40;1.00
5009;DHT22;2523;51.058;6.922;2023-04-03T06:40:35;3.40;1.00
5009;DHT22;2523;51.058;6.922;2023-04-03T06:43:01;3.50;1.00
5009;DHT22;2523;51.058;6.922;2023-04-03T06:45:26;3.50;1.00
5009;DHT22;2523;51.058;6.922;2023-04-03T06:47:53;3.60;1.00
5009;DHT22;2523;51.058;6.922;2023-04-03T06:50:19;3.70;1.00
5009;DHT22;2523;51.058;6.922;2023-04-03T06:52:45;3.80;1.00
5009;DHT22;2523;51.058;6.922;2023-04-03T06:55:11;3.80;1.00
5009;DHT22;2523;51.058;6.922;2023-04-03T06:57:36;3.80;99.90
5009;DHT22;2523;51.058;6.922;2023-04-03T07:00:04;3.80;99.90
5009;DHT22;2523;51.058;6.922;2023-04-03T07:02:30;3.90;99.90
5009;DHT22;2523;51.058;6.922;2023-04-03T07:04:56;3.90;99.90
5009;DHT22;2523;51.058;6.922;2023-04-03T07:07:21;4.00;99.90
5009;DHT22;2523;51.058;6.922;2023-04-03T07:09:47;4.10;99.90
5009;DHT22;2523;51.058;6.922;2023-04-03T07:12:13;4.10;99.90
5009;DHT22;2523;51.058;6.922;2023-04-03T07:14:39;4.20;99.90
5009;DHT22;2523;51.058;6.922;2023-04-03T07:17:04;4.20;99.90
5009;DHT22;2523;51.058;6.922;2023-04-03T07:19:30;4.20;99.90
5009;DHT22;2523;51.058;6.922;2023-04-03T07:21:56;4.20;99.90
5009;DHT22;2523;51.058;6.922;2023-04-03T07:24:22;4.30;99.90
5009;DHT22;2523;51.058;6.922;2023-04-03T07:26:52;4.30;99.90
5009;DHT22;2523;51.058;6.922;2023-04-03T07:29:18;4.40;99.90
5009;DHT22;2523;51.058;6.922;2023-04-03T07:31:43;4.50;99.90
5009;DHT22;2523;51.058;6.922;2023-04-03T07:34:10;4.50;99.90
5009;DHT22;2523;51.058;6.922;2023-04-03T07:36:36;4.60;99.90
5009;DHT22;2523;51.058;6.922;2023-04-03T07:39:01;4.60;99.90
5009;DHT22;2523;51.058;6.922;2023-04-03T07:41:27;4.70;99.90
5009;DHT22;2523;51.058;6.922;2023-04-03T07:43:54;4.70;99.90
5009;DHT22;2523;51.058;6.922;2023-04-03T07:46:20;4.80;99.90
5009;DHT22;2523;51.058;6.922;2023-04-03T07:48:46;4.80;99.90
5009;DHT22;2523;51.058;6.922;2023-04-03T07:51:11;4.90;99.90
5009;DHT22;2523;51.058;6.922;2023-04-03T07:53:38;4.90;99.90
5009;DHT22;2523;51.058;6.922;2023-04-03T07:56:03;5.00;99.90
5009;DHT22;2523;51.058;6.922;2023-04-03T07:58:30;5.10;99.90
5009;DHT22;2523;51.058;6.922;2023-04-03T08:00:55;5.20;99.90
5009;DHT22;2523;51.058;6.922;2023-04-03T08:03:21;5.20;99.90
5009;DHT22;2523;51.058;6.922;2023-04-03T08:05:48;5.30;99.90
5009;DHT22;2523;51.058;6.922;2023-04-03T08:08:16;5.30;99.90
5009;DHT22;2523;51.058;6.922;2023-04-03T08:10:42;5.30;99.90
5009;DHT22;2523;51.058;6.922;2023-04-03T08:13:09;5.30;99.90
5009;DHT22;2523;51.058;6.922;2023-04-03T08:15:35;5.40;99.90
5009;DHT22;2523;51.058;6.922;2023-04-03T08:18:01;5.50;99.90
5009;DHT22;2523;51.058;6.922;2023-04-03T08:20:28;5.60;99.90
5009;DHT22;2523;51.058;6.922;2023-04-03T08:22:54;5.80;99.90
5009;DHT22;2523;51.058;6.922;2023-04-03T08:25:19;5.90;99.90
5009;DHT22;2523;51.058;6.922;2023-04-03T08:27:45;6.00;99.90
5009;DHT22;2523;51.058;6.922;2023-04-03T08:30:11;6.20;99.90
5009;DHT22;2523;51.058;6.922;2023-04-03T08:32:37;6.20;99.90
5009;DHT22;2523;51.058;6.922;2023-04-03T08:35:03;6.30;99.90
5009;DHT22;2523;51.058;6.922;2023-04-03T08:37:29;6.40;99.90
5009;DHT22;2523;51.058;6.922;2023-04-03T08:39:55;6.40;99.90
5009;DHT22;2523;51.058;6.922;2023-04-03T08:45:12;6.60;99.90
5009;DHT22;2523;51.058;6.922;2023-04-03T08:47:58;6.80;99.90
5009;DHT22;2523;51.058;6.922;2023-04-03T08:50:39;6.90;99.90
5009;DHT22;2523;51.058;6.922;2023-04-03T08:53:14;7.10;99.90
5009;DHT22;2523;51.058;6.922;2023-04-03T08:55:50;7.20;99.90
5009;DHT22;2523;51.058;6.922;2023-04-03T08:58:19;7.40;99.90
5009;DHT22;2523;51.058;6.922;2023-04-03T09:01:04;7.50;99.90
5009;DHT22;2523;51.058;6.922;2023-04-03T09:03:33;7.50;99.90
5009;DHT22;2523;51.058;6.922;2023-04-03T09:08:45;7.60;99.90
5009;DHT22;2523;51.058;6.922;2023-04-03T09:11:24;7.80;99.90
5009;DHT22;2523;51.058;6.922;2023-04-03T09:13:59;7.90;99.90
5009;DHT22;2523;51.058;6.922;2023-04-03T09:24:38;8.00;99.90
5009;DHT22;2523;51.058;6.922;2023-04-03T09:27:08;8.10;99.90
5009;DHT22;2523;51.058;6.922;2023-04-03T09:29:39;8.20;99.90
5009;DHT22;2523;51.058;6.922;2023-04-03T09:32:19;8.40;99.90
5009;DHT22;2523;51.058;6.922;2023-04-03T09:34:47;8.50;99.90
5009;DHT22;2523;51.058;6.922;2023-04-03T09:37:40;8.70;99.90
5009;DHT22;2523;51.058;6.922;2023-04-03T09:45:43;8.90;99.90
5009;DHT22;2523;51.058;6.922;2023-04-03T09:48:17;9.00;99.90
5009;DHT22;2523;51.058;6.922;2023-04-03T09:53:42;9.00;99.90
5009;DHT22;2523;51.058;6.922;2023-04-03T09:58:48;9.40;99.90
5009;DHT22;2523;51.058;6.922;2023-04-03T10:06:40;9.70;99.90
5009;DHT22;2523;51.058;6.922;2023-04-03T10:09:24;10.00;99.90
5009;DHT22;2523;51.058;6.922;2023-04-03T10:12:00;10.20;99.90
5009;DHT22;2523;51.058;6.922;2023-04-03T10:14:30;10.30;99.90
5009;DHT22;2523;51.058;6.922;2023-04-03T10:20:03;10.60;99.90
5009;DHT22;2523;51.058;6.922;2023-04-03T10:25:43;10.80;99.90
5009;DHT22;2523;51.058;6.922;2023-04-03T10:28:27;10.80;99.90
5009;DHT22;2523;51.058;6.922;2023-04-03T10:31:10;11.00;99.90
5009;DHT22;2523;51.058;6.922;2023-04-03T10:33:49;11.30;99.90
5009;DHT22;2523;51.058;6.922;2023-04-03T10:36:29;11.00;99.90
5009;DHT22;2523;51.058;6.922;2023-04-03T10:41:43;11.10;99.90
5009;DHT22;2523;51.058;6.922;2023-04-03T10:44:38;11.20;99.90
5009;DHT22;2523;51.058;6.922;2023-04-03T10:52:40;12.00;99.90
5009;DHT22;2523;51.058;6.922;2023-04-03T10:55:48;12.00;99.90
5009;DHT22;2523;51.058;6.922;2023-04-03T10:58:06;11.80;99.90
5009;DHT22;2523;51.058;6.922;2023-04-03T11:00:48;11.90;99.90
5009;DHT22;2523;51.058;6.922;2023-04-03T11:05:53;12.30;99.90
5009;DHT22;2523;51.058;6.922;2023-04-03T11:08:37;12.40;99.90
5009;DHT22;2523;51.058;6.922;2023-04-03T11:11:20;12.50;99.90
5009;DHT22;2523;51.058;6.922;2023-04-03T11:13:55;12.70;99.90
5009;DHT22;2523;51.058;6.922;2023-04-03T11:16:27;12.30;99.90
5009;DHT22;2523;51.058;6.922;2023-04-03T11:19:04;12.10;99.90
5009;DHT22;2523;51.058;6.922;2023-04-03T11:21:39;12.50;99.90
5009;DHT22;2523;51.058;6.922;2023-04-03T11:24:25;13.10;99.90
5009;DHT22;2523;51.058;6.922;2023-04-03T11:26:54;13.80;99.90
5009;DHT22;2523;51.058;6.922;2023-04-03T11:29:23;13.30;99.90
5009;DHT22;2523;51.058;6.922;2023-04-03T11:34:42;12.80;99.90
5009;DHT22;2523;51.058;6.922;2023-04-03T11:37:29;13.40;99.90
5009;DHT22;2523;51.058;6.922;2023-04-03T11:40:03;13.70;99.90
5009;DHT22;2523;51.058;6.922;2023-04-03T11:42:39;14.20;99.90
5009;DHT22;2523;51.058;6.922;2023-04-03T11:45:31;13.90;99.90
5009;DHT22;2523;51.058;6.922;2023-04-03T12:16:29;14.60;99.90
5009;DHT22;2523;51.058;6.922;2023-04-03T12:19:01;15.00;99.90
5009;DHT22;2523;51.058;6.922;2023-04-03T12:24:26;14.40;99.90
5009;DHT22;2523;51.058;6.922;2023-04-03T12:27:24;15.00;99.90
5009;DHT22;2523;51.058;6.922;2023-04-03T12:29:52;15.00;99.90
5009;DHT22;2523;51.058;6.922;2023-04-03T12:32:44;15.10;99.90
5009;DHT22;2523;51.058;6.922;2023-04-03T12:35:19;15.30;99.90
5009;DHT22;2523;51.058;6.922;2023-04-03T12:40:50;14.90;99.90
5009;DHT22;2523;51.058;6.922;2023-04-03T12:45:44;14.90;99.90
5009;DHT22;2523;51.058;6.922;2023-04-03T12:48:24;15.50;99.90
5009;DHT22;2523;51.058;6.922;2023-04-03T12:50:51;15.80;99.90
5009;DHT22;2523;51.058;6.922;2023-04-03T12:53:26;15.50;99.90
5009;DHT22;2523;51.058;6.922;2023-04-03T12:55:56;16.00;99.90
5009;DHT22;2523;51.058;6.922;2023-04-03T12:58:23;15.70;99.90
5009;DHT22;2523;51.058;6.922;2023-04-03T13:01:03;16.00;99.90
5009;DHT22;2523;51.058;6.922;2023-04-03T13:03:30;15.90;99.90
5009;DHT22;2523;51.058;6.922;2023-04-03T13:05:59;16.40;99.90
5009;DHT22;2523;51.058;6.922;2023-04-03T13:08:26;15.90;99.90
5009;DHT22;2523;51.058;6.922;2023-04-03T13:11:08;16.10;99.90
5009;DHT22;2523;51.058;6.922;2023-04-03T13:13:35;16.40;99.90
5009;DHT22;2523;51.058;6.922;2023-04-03T13:16:08;16.40;99.90
5009;DHT22;2523;51.058;6.922;2023-04-03T13:18:36;16.20;99.90
5009;DHT22;2523;51.058;6.922;2023-04-03T13:21:11;15.90;99.90
5009;DHT22;2523;51.058;6.922;2023-04-03T13:23:40;16.60;99.90
5009;DHT22;2523;51.058;6.922;2023-04-03T13:26:08;16.40;99.90
5009;DHT22;2523;51.058;6.922;2023-04-03T13:28:35;16.70;99.90
5009;DHT22;2523;51.058;6.922;2023-04-03T13:31:05;15.80;99.90
5009;DHT22;2523;51.058;6.922;2023-04-03T13:33:33;16.20;99.90
5009;DHT22;2523;51.058;6.922;2023-04-03T13:36:16;16.40;99.90
5009;DHT22;2523;51.058;6.922;2023-04-03T13:38:42;16.00;99.90
5009;DHT22;2523;51.058;6.922;2023-04-03T13:41:31;15.90;99.90
5009;DHT22;2523;51.058;6.922;2023-04-03T13:43:57;15.90;99.90
5009;DHT22;2523;51.058;6.922;2023-04-03T13:46:39;14.80;99.90
5009;DHT22;2523;51.058;6.922;2023-04-03T13:49:19;14.70;99.90
5009;DHT22;2523;51.058;6.922;2023-04-03T13:51:45;15.10;99.90
5009;DHT22;2523;51.058;6.922;2023-04-03T13:54:37;15.60;99.90
5009;DHT22;2523;51.058;6.922;2023-04-03T13:57:11;15.50;99.90
5009;DHT22;2523;51.058;6.922;2023-04-03T13:59:38;15.50;99.90
5009;DHT22;2523;51.058;6.922;2023-04-03T14:07:13;15.20;99.90
5009;DHT22;2523;51.058;6.922;2023-04-03T14:09:39;15.40;99.90
5009;DHT22;2523;51.058;6.922;2023-04-03T14:12:08;14.70;99.90
5009;DHT22;2523;51.058;6.922;2023-04-03T14:14:37;14.60;99.90
5009;DHT22;2523;51.058;6.922;2023-04-03T14:17:13;14.40;99.90
5009;DHT22;2523;51.058;6.922;2023-04-03T14:19:39;14.20;99.90
5009;DHT22;2523;51.058;6.922;2023-04-03T14:22:23;14.10;99.90
5009;DHT22;2523;51.058;6.922;2023-04-03T14:24:49;13.90;99.90
5009;DHT22;2523;51.058;6.922;2023-04-03T14:27:22;13.60;99.90
5009;DHT22;2523;51.058;6.922;2023-04-03T14:29:49;13.30;99.90
5009;DHT22;2523;51.058;6.922;2023-04-03T14:32:16;13.40;99.90
5009;DHT22;2523;51.058;6.922;2023-04-03T14:34:43;13.20;99.90
5009;DHT22;2523;51.058;6.922;2023-04-03T14:37:15;13.40;99.90
5009;DHT22;2523;51.058;6.922;2023-04-03T14:39:42;13.60;99.90
5009;DHT22;2523;51.058;6.922;2023-04-03T14:42:13;13.40;99.90
5009;DHT22;2523;51.058;6.922;2023-04-03T14:44:40;13.50;99.90
5009;DHT22;2523;51.058;6.922;2023-04-03T14:47:12;13.50;99.90
5009;DHT22;2523;51.058;6.922;2023-04-03T14:49:39;13.50;99.90
5009;DHT22;2523;51.058;6.922;2023-04-03T14:52:05;13.40;99.90
5009;DHT22;2523;51.058;6.922;2023-04-03T14:54:31;13.40;99.90
5009;DHT22;2523;51.058;6.922;2023-04-03T14:56:58;13.10;99.90
5009;DHT22;2523;51.058;6.922;2023-04-03T14:59:31;13.30;99.90
5009;DHT22;2523;51.058;6.922;2023-04-03T15:01:57;13.30;99.90
5009;DHT22;2523;51.058;6.922;2023-04-03T15:04:23;13.30;99.90
5009;DHT22;2523;51.058;6.922;2023-04-03T15:06:48;13.30;99.90
5009;DHT22;2523;51.058;6.922;2023-04-03T15:09:22;13.40;99.90
5009;DHT22;2523;51.058;6.922;2023-04-03T15:11:50;13.20;99.90
5009;DHT22;2523;51.058;6.922;2023-04-03T15:14:16;13.30;99.90
5009;DHT22;2523;51.058;6.922;2023-04-03T15:16:42;13.30;99.90
5009;DHT22;2523;51.058;6.922;2023-04-03T15:19:07;13.10;99.90
5009;DHT22;2523;51.058;6.922;2023-04-03T15:21:33;13.10;99.90
5009;DHT22;2523;51.058;6.922;2023-04-03T15:23:58;13.00;99.90
5009;DHT22;2523;51.058;6.922;2023-04-03T15:26:24;13.20;99.90
5009;DHT22;2523;51.058;6.922;2023-04-03T15:28:50;13.00;99.90
5009;DHT22;2523;51.058;6.922;2023-04-03T15:31:16;12.70;99.90
5009;DHT22;2523;51.058;6.922;2023-04-03T15:33:42;12.80;99.90
5009;DHT22;2523;51.058;6.922;2023-04-03T15:36:08;12.80;99.90
5009;DHT22;2523;51.058;6.922;2023-04-03T15:38:34;13.00;99.90
5009;DHT22;2523;51.058;6.922;2023-04-03T15:40:59;12.80;99.90
5009;DHT22;2523;51.058;6.922;2023-04-03T15:43:25;12.70;99.90
5009;DHT22;2523;51.058;6.922;2023-04-03T15:45:51;12.70;99.90
5009;DHT22;2523;51.058;6.922;2023-04-03T15:48:17;12.70;99.90
5009;DHT22;2523;51.058;6.922;2023-04-03T15:50:43;12.80;99.90
5009;DHT22;2523;51.058;6.922;2023-04-03T15:53:09;12.60;99.90
5009;DHT22;2523;51.058;6.922;2023-04-03T15:55:36;12.70;99.90
5009;DHT22;2523;51.058;6.922;2023-04-03T15:58:03;12.70;99.90
5009;DHT22;2523;51.058;6.922;2023-04-03T16:00:29;12.70;99.90
5009;DHT22;2523;51.058;6.922;2023-04-03T16:03:04;12.60;99.90
5009;DHT22;2523;51.058;6.922;2023-04-03T16:05:30;12.50;99.90
5009;DHT22;2523;51.058;6.922;2023-04-03T16:07:57;12.50;99.90
5009;DHT22;2523;51.058;6.922;2023-04-03T16:10:24;12.30;99.90
5009;DHT22;2523;51.058;6.922;2023-04-03T16:12:50;12.30;99.90
5009;DHT22;2523;51.058;6.922;2023-04-03T16:15:15;11.90;99.90
5009;DHT22;2523;51.058;6.922;2023-04-03T16:17:41;11.80;99.90
5009;DHT22;2523;51.058;6.922;2023-04-03T16:20:07;11.90;99.90
5009;DHT22;2523;51.058;6.922;2023-04-03T16:22:34;11.90;99.90
5009;DHT22;2523;51.058;6.922;2023-04-03T16:25:00;11.80;99.90
5009;DHT22;2523;51.058;6.922;2023-04-03T16:27:26;11.80;99.90
5009;DHT22;2523;51.058;6.922;2023-04-03T16:29:54;11.70;99.90
5009;DHT22;2523;51.058;6.922;2023-04-03T16:32:20;11.50;99.90
5009;DHT22;2523;51.058;6.922;2023-04-03T16:34:46;11.40;99.90
5009;DHT22;2523;51.058;6.922;2023-04-03T16:37:12;11.30;99.90
5009;DHT22;2523;51.058;6.922;2023-04-03T16:39:37;11.20;99.90
5009;DHT22;2523;51.058;6.922;2023-04-03T16:42:03;11.10;99.90
5009;DHT22;2523;51.058;6.922;2023-04-03T16:44:28;11.10;99.90
5009;DHT22;2523;51.058;6.922;2023-04-03T16:46:54;11.10;99.90
5009;DHT22;2523;51.058;6.922;2023-04-03T16:49:19;11.00;99.90
5009;DHT22;2523;51.058;6.922;2023-04-03T16:51:45;10.90;99.90
5009;DHT22;2523;51.058;6.922;2023-04-03T16:54:11;10.80;99.90
5009;DHT22;2523;51.058;6.922;2023-04-03T16:56:39;10.80;99.90
5009;DHT22;2523;51.058;6.922;2023-04-03T16:59:05;10.70;99.90
5009;DHT22;2523;51.058;6.922;2023-04-03T17:01:30;10.60;99.90
5009;DHT22;2523;51.058;6.922;2023-04-03T17:03:56;10.50;99.90
5009;DHT22;2523;51.058;6.922;2023-04-03T17:06:22;10.50;99.90
5009;DHT22;2523;51.058;6.922;2023-04-03T17:08:49;10.40;99.90
5009;DHT22;2523;51.058;6.922;2023-04-03T17:11:16;10.30;99.90
5009;DHT22;2523;51.058;6.922;2023-04-03T17:13:41;10.20;99.90
5009;DHT22;2523;51.058;6.922;2023-04-03T17:16:13;10.10;99.90
5009;DHT22;2523;51.058;6.922;2023-04-03T17:18:39;10.10;99.90
5009;DHT22;2523;51.058;6.922;2023-04-03T17:21:06;10.10;99.90
5009;DHT22;2523;51.058;6.922;2023-04-03T17:23:32;10.00;99.90
5009;DHT22;2523;51.058;6.922;2023-04-03T17:26:00;9.90;99.90
5009;DHT22;2523;51.058;6.922;2023-04-03T17:28:26;9.80;99.90
5009;DHT22;2523;51.058;6.922;2023-04-03T17:30:55;9.80;99.90
5009;DHT22;2523;51.058;6.922;2023-04-03T17:33:22;9.60;99.90
5009;DHT22;2523;51.058;6.922;2023-04-03T17:35:48;9.50;99.90
5009;DHT22;2523;51.058;6.922;2023-04-03T17:38:13;9.50;99.90
5009;DHT22;2523;51.058;6.922;2023-04-03T17:40:39;9.40;99.90
5009;DHT22;2523;51.058;6.922;2023-04-03T17:43:04;9.30;99.90
5009;DHT22;2523;51.058;6.922;2023-04-03T17:45:30;9.10;99.90
5009;DHT22;2523;51.058;6.922;2023-04-03T17:47:56;9.00;99.90
5009;DHT22;2523;51.058;6.922;2023-04-03T17:50:21;8.90;99.90
5009;DHT22;2523;51.058;6.922;2023-04-03T17:52:47;8.80;99.90
5009;DHT22;2523;51.058;6.922;2023-04-03T17:55:13;8.70;99.90
5009;DHT22;2523;51.058;6.922;2023-04-03T17:57:40;8.60;99.90
5009;DHT22;2523;51.058;6.922;2023-04-03T18:00:06;8.60;99.90